AAL824 KMEM-KDCA
Flight info
| Callsign | AAL824 |
|---|---|
| Flight time | 1h 33m |
| Altitude | 37000 |
| Route | GOETZ7 DIYAB WAKOL Q34 SITTR TRUPS5 |
| Aircraft | B738/M-SDE2E3FGHIRWXY/LB1 |
Departure
| Time | 2026-04-26 01:57 |
|---|---|
| Airport | Memphis International Airport (KMEM) |
Arrival
| Time | 2026-04-26 03:30 |
|---|---|
| Airport | Ronald Reagan Washington National Airport (KDCA) |
| Time | Latitude | Longitude | Altitude | Speed | Heading |
|---|---|---|---|---|---|
| 2026-04-26 01:27 | 35.04102 | -89.97913 | 311 ft | 0 kts | 265° |
| 2026-04-26 01:46 | 35.04102 | -89.97910 | 312 ft | 3 kts | 266° |
| 2026-04-26 01:46 | 35.04097 | -89.97880 | 311 ft | 4 kts | 283° |
| 2026-04-26 01:47 | 35.04091 | -89.97852 | 311 ft | 4 kts | 307° |
| 2026-04-26 01:47 | 35.04071 | -89.97838 | 311 ft | 4 kts | 358° |
| 2026-04-26 01:47 | 35.04058 | -89.97837 | 311 ft | 1 kts | 360° |
| 2026-04-26 01:52 | 35.04063 | -89.97837 | 312 ft | 5 kts | 360° |
| 2026-04-26 01:52 | 35.04119 | -89.97837 | 313 ft | 10 kts | 1° |
| 2026-04-26 01:52 | 35.04184 | -89.97801 | 313 ft | 12 kts | 62° |
| 2026-04-26 01:53 | 35.04256 | -89.97748 | 315 ft | 15 kts | 5° |
| 2026-04-26 01:53 | 35.04372 | -89.97746 | 315 ft | 20 kts | 359° |
| 2026-04-26 01:53 | 35.04527 | -89.97748 | 316 ft | 25 kts | 360° |
| 2026-04-26 01:53 | 35.04719 | -89.97751 | 311 ft | 30 kts | 358° |
| 2026-04-26 01:54 | 35.04929 | -89.97757 | 313 ft | 31 kts | 359° |
| 2026-04-26 01:54 | 35.05140 | -89.97758 | 315 ft | 23 kts | 358° |
| 2026-04-26 01:54 | 35.05280 | -89.97763 | 320 ft | 19 kts | 358° |
| 2026-04-26 01:54 | 35.05401 | -89.97779 | 322 ft | 14 kts | 2° |
| 2026-04-26 01:55 | 35.05438 | -89.97748 | 324 ft | 0 kts | 67° |
| 2026-04-26 01:55 | 35.05444 | -89.97721 | 325 ft | 10 kts | 79° |
| 2026-04-26 01:56 | 35.05411 | -89.97620 | 325 ft | 15 kts | 158° |
| 2026-04-26 01:56 | 35.05155 | -89.97609 | 317 ft | 79 kts | 179° |
| 2026-04-26 01:56 | 35.04304 | -89.97595 | 318 ft | 161 kts | 180° |
| 2026-04-26 01:56 | 35.03028 | -89.97590 | 808 ft | 198 kts | 180° |
| 2026-04-26 01:57 | 35.01626 | -89.97575 | 1861 ft | 201 kts | 179° |
| 2026-04-26 01:57 | 35.00265 | -89.97558 | 3148 ft | 189 kts | 180° |
| 2026-04-26 01:57 | 34.98962 | -89.97475 | 4095 ft | 187 kts | 174° |
| 2026-04-26 01:57 | 34.97675 | -89.97108 | 4749 ft | 200 kts | 157° |
| 2026-04-26 01:58 | 34.96316 | -89.96346 | 4914 ft | 229 kts | 156° |
| 2026-04-26 01:58 | 34.94730 | -89.95638 | 4996 ft | 253 kts | 156° |
| 2026-04-26 01:58 | 34.93390 | -89.94320 | 4990 ft | 255 kts | 119° |
| 2026-04-26 01:58 | 34.92876 | -89.92283 | 5031 ft | 251 kts | 95° |
| 2026-04-26 01:59 | 34.92763 | -89.90155 | 5373 ft | 253 kts | 91° |
| 2026-04-26 01:59 | 34.92696 | -89.88007 | 6271 ft | 253 kts | 91° |
| 2026-04-26 01:59 | 34.92617 | -89.85848 | 7084 ft | 257 kts | 91° |
| 2026-04-26 01:59 | 34.92781 | -89.83673 | 7769 ft | 262 kts | 66° |
| 2026-04-26 02:00 | 34.93646 | -89.81721 | 8566 ft | 263 kts | 56° |
| 2026-04-26 02:00 | 34.94597 | -89.79783 | 9320 ft | 269 kts | 56° |
| 2026-04-26 02:00 | 34.95566 | -89.77791 | 10012 ft | 278 kts | 56° |
| 2026-04-26 02:00 | 34.96585 | -89.75685 | 10359 ft | 300 kts | 56° |
| 2026-04-26 02:01 | 34.97684 | -89.73390 | 10544 ft | 326 kts | 57° |
| 2026-04-26 02:01 | 34.98857 | -89.70912 | 10813 ft | 347 kts | 57° |
| 2026-04-26 02:01 | 35.00075 | -89.68319 | 11377 ft | 357 kts | 58° |
| 2026-04-26 02:01 | 35.01314 | -89.65674 | 12106 ft | 361 kts | 58° |
| 2026-04-26 02:02 | 35.02563 | -89.63004 | 12844 ft | 365 kts | 58° |
| 2026-04-26 02:02 | 35.03818 | -89.60324 | 13538 ft | 370 kts | 58° |
| 2026-04-26 02:02 | 35.05102 | -89.57582 | 14176 ft | 375 kts | 58° |
| 2026-04-26 02:02 | 35.06400 | -89.54810 | 14858 ft | 377 kts | 57° |
| 2026-04-26 02:03 | 35.07705 | -89.52020 | 15550 ft | 380 kts | 57° |
| 2026-04-26 02:03 | 35.09025 | -89.49196 | 16228 ft | 383 kts | 57° |
| 2026-04-26 02:03 | 35.10352 | -89.46358 | 16885 ft | 387 kts | 57° |
| 2026-04-26 02:03 | 35.11695 | -89.43484 | 17543 ft | 391 kts | 57° |
| 2026-04-26 02:04 | 35.13046 | -89.40588 | 18192 ft | 394 kts | 57° |
| 2026-04-26 02:04 | 35.14410 | -89.37661 | 18726 ft | 398 kts | 57° |
| 2026-04-26 02:04 | 35.15791 | -89.34697 | 19252 ft | 404 kts | 57° |
| 2026-04-26 02:04 | 35.17187 | -89.31697 | 19765 ft | 408 kts | 57° |
| 2026-04-26 02:05 | 35.18599 | -89.28660 | 20288 ft | 413 kts | 57° |
| 2026-04-26 02:05 | 35.20026 | -89.25590 | 20788 ft | 418 kts | 56° |
| 2026-04-26 02:05 | 35.21452 | -89.22419 | 20946 ft | 434 kts | 61° |
| 2026-04-26 02:05 | 35.22539 | -89.18964 | 21179 ft | 447 kts | 70° |
| 2026-04-26 02:06 | 35.23434 | -89.15287 | 21557 ft | 453 kts | 70° |
| 2026-04-26 02:06 | 35.24336 | -89.11583 | 22026 ft | 455 kts | 69° |
| 2026-04-26 02:06 | 35.25524 | -89.08006 | 22534 ft | 453 kts | 60° |
| 2026-04-26 02:06 | 35.26446 | -89.05715 | 22845 ft | 454 kts | 59° |
| 2026-04-26 02:07 | 35.27897 | -89.02263 | 23271 ft | 457 kts | 58° |
| 2026-04-26 02:07 | 35.29378 | -88.98792 | 23631 ft | 461 kts | 58° |
| 2026-04-26 02:07 | 35.30865 | -88.95282 | 23969 ft | 465 kts | 58° |
| 2026-04-26 02:07 | 35.32349 | -88.91738 | 24307 ft | 469 kts | 59° |
| 2026-04-26 02:08 | 35.33826 | -88.88165 | 24637 ft | 472 kts | 59° |
| 2026-04-26 02:08 | 35.35305 | -88.84554 | 24965 ft | 476 kts | 59° |
| 2026-04-26 02:08 | 35.36795 | -88.80897 | 25212 ft | 482 kts | 59° |
| 2026-04-26 02:08 | 35.38290 | -88.77215 | 25533 ft | 485 kts | 59° |
| 2026-04-26 02:09 | 35.39791 | -88.73509 | 25882 ft | 487 kts | 59° |
| 2026-04-26 02:09 | 35.41282 | -88.69826 | 26207 ft | 489 kts | 59° |
| 2026-04-26 02:09 | 35.42799 | -88.66074 | 26519 ft | 492 kts | 59° |
| 2026-04-26 02:09 | 35.44320 | -88.62311 | 26894 ft | 493 kts | 59° |
| 2026-04-26 02:10 | 35.45840 | -88.58548 | 27324 ft | 493 kts | 59° |
| 2026-04-26 02:10 | 35.47359 | -88.54781 | 27752 ft | 493 kts | 59° |
| 2026-04-26 02:10 | 35.48878 | -88.51011 | 28142 ft | 493 kts | 59° |
| 2026-04-26 02:10 | 35.50405 | -88.47221 | 28598 ft | 494 kts | 59° |
| 2026-04-26 02:11 | 35.51925 | -88.43442 | 29013 ft | 494 kts | 58° |
| 2026-04-26 02:11 | 35.53450 | -88.39648 | 29395 ft | 496 kts | 58° |
| 2026-04-26 02:11 | 35.54974 | -88.35850 | 29819 ft | 496 kts | 58° |
| 2026-04-26 02:11 | 35.56497 | -88.32050 | 30217 ft | 495 kts | 58° |
| 2026-04-26 02:12 | 35.58015 | -88.28256 | 30599 ft | 495 kts | 58° |
| 2026-04-26 02:12 | 35.59512 | -88.24510 | 30963 ft | 494 kts | 58° |
| 2026-04-26 02:12 | 35.61026 | -88.20720 | 31326 ft | 494 kts | 58° |
| 2026-04-26 02:12 | 35.62540 | -88.16924 | 31682 ft | 493 kts | 58° |
| 2026-04-26 02:13 | 35.64048 | -88.13141 | 32047 ft | 493 kts | 59° |
| 2026-04-26 02:13 | 35.65557 | -88.09351 | 32365 ft | 492 kts | 59° |
| 2026-04-26 02:13 | 35.67062 | -88.05563 | 32676 ft | 493 kts | 59° |
| 2026-04-26 02:13 | 35.68568 | -88.01772 | 32996 ft | 493 kts | 59° |
| 2026-04-26 02:14 | 35.70038 | -87.98066 | 33331 ft | 492 kts | 59° |
| 2026-04-26 02:14 | 35.71539 | -87.94278 | 33671 ft | 492 kts | 59° |
| 2026-04-26 02:14 | 35.73037 | -87.90494 | 33955 ft | 492 kts | 59° |
| 2026-04-26 02:14 | 35.74535 | -87.86699 | 34247 ft | 492 kts | 58° |
| 2026-04-26 02:15 | 35.76011 | -87.82961 | 34531 ft | 491 kts | 58° |
| 2026-04-26 02:15 | 35.77501 | -87.79187 | 34828 ft | 490 kts | 58° |
| 2026-04-26 02:15 | 35.78958 | -87.75392 | 35116 ft | 491 kts | 60° |
| 2026-04-26 02:16 | 35.81625 | -87.67528 | 35205 ft | 503 kts | 63° |
| 2026-04-26 02:16 | 35.84228 | -87.59427 | 35306 ft | 512 kts | 63° |
| 2026-04-26 02:17 | 35.86894 | -87.51202 | 35417 ft | 519 kts | 63° |
| 2026-04-26 02:17 | 35.88248 | -87.47057 | 35525 ft | 521 kts | 63° |
| 2026-04-26 02:17 | 35.89605 | -87.42914 | 35710 ft | 520 kts | 63° |
| 2026-04-26 02:17 | 35.90960 | -87.38778 | 35949 ft | 518 kts | 63° |
| 2026-04-26 02:18 | 35.92291 | -87.34711 | 36174 ft | 517 kts | 63° |
| 2026-04-26 02:18 | 35.93635 | -87.30601 | 36369 ft | 516 kts | 63° |
| 2026-04-26 02:18 | 35.94973 | -87.26501 | 36603 ft | 514 kts | 63° |
| 2026-04-26 02:18 | 35.96307 | -87.22408 | 36790 ft | 514 kts | 63° |
| 2026-04-26 02:19 | 35.97642 | -87.18306 | 36898 ft | 515 kts | 63° |
| 2026-04-26 02:19 | 36.00312 | -87.10091 | 36901 ft | 516 kts | 63° |
| 2026-04-26 02:20 | 36.02973 | -87.01870 | 36903 ft | 514 kts | 63° |
| 2026-04-26 02:20 | 36.05590 | -86.93762 | 36904 ft | 514 kts | 63° |
| 2026-04-26 02:21 | 36.08230 | -86.85563 | 36911 ft | 513 kts | 63° |
| 2026-04-26 02:21 | 36.10865 | -86.77359 | 36932 ft | 513 kts | 63° |
| 2026-04-26 02:22 | 36.13479 | -86.69198 | 36936 ft | 513 kts | 63° |
| 2026-04-26 02:22 | 36.16123 | -86.61006 | 36937 ft | 513 kts | 63° |
| 2026-04-26 02:23 | 36.18789 | -86.52812 | 36935 ft | 513 kts | 63° |
| 2026-04-26 02:23 | 36.21447 | -86.44618 | 36957 ft | 513 kts | 64° |
| 2026-04-26 02:24 | 36.24093 | -86.36418 | 36959 ft | 512 kts | 64° |
| 2026-04-26 02:24 | 36.26733 | -86.28209 | 36953 ft | 512 kts | 64° |
| 2026-04-26 02:25 | 36.29362 | -86.20010 | 36923 ft | 512 kts | 64° |
| 2026-04-26 02:25 | 36.31984 | -86.11810 | 36916 ft | 511 kts | 64° |
| 2026-04-26 02:26 | 36.34583 | -86.03662 | 36916 ft | 511 kts | 65° |
| 2026-04-26 02:26 | 36.37162 | -85.95552 | 36919 ft | 511 kts | 65° |
| 2026-04-26 02:27 | 36.39765 | -85.87345 | 36915 ft | 511 kts | 65° |
| 2026-04-26 02:27 | 36.42358 | -85.79144 | 36914 ft | 511 kts | 65° |
| 2026-04-26 02:28 | 36.44954 | -85.70916 | 36912 ft | 511 kts | 65° |
| 2026-04-26 02:28 | 36.47541 | -85.62686 | 36920 ft | 511 kts | 65° |
| 2026-04-26 02:29 | 36.50102 | -85.54518 | 36910 ft | 511 kts | 65° |
| 2026-04-26 02:29 | 36.52674 | -85.46290 | 36917 ft | 510 kts | 65° |
| 2026-04-26 02:30 | 36.55240 | -85.38063 | 36909 ft | 510 kts | 66° |
| 2026-04-26 02:30 | 36.57796 | -85.29838 | 36921 ft | 510 kts | 66° |
| 2026-04-26 02:31 | 36.60349 | -85.21601 | 36925 ft | 509 kts | 66° |
| 2026-04-26 02:31 | 36.62893 | -85.13372 | 36927 ft | 510 kts | 66° |
| 2026-04-26 02:32 | 36.65434 | -85.05125 | 36968 ft | 509 kts | 66° |
| 2026-04-26 02:32 | 36.67924 | -84.97019 | 36954 ft | 509 kts | 67° |
| 2026-04-26 02:33 | 36.70443 | -84.88790 | 36961 ft | 508 kts | 67° |
| 2026-04-26 02:33 | 36.72959 | -84.80553 | 36968 ft | 508 kts | 67° |
| 2026-04-26 02:34 | 36.75464 | -84.72323 | 36962 ft | 508 kts | 67° |
| 2026-04-26 02:34 | 36.77965 | -84.64086 | 36947 ft | 507 kts | 67° |
| 2026-04-26 02:35 | 36.80460 | -84.55847 | 36945 ft | 508 kts | 68° |
| 2026-04-26 02:35 | 36.82954 | -84.47602 | 36935 ft | 508 kts | 68° |
| 2026-04-26 02:36 | 36.85447 | -84.39344 | 36933 ft | 508 kts | 68° |
| 2026-04-26 02:36 | 36.87938 | -84.31068 | 36959 ft | 509 kts | 68° |
| 2026-04-26 02:37 | 36.90419 | -84.22795 | 36962 ft | 509 kts | 68° |
| 2026-04-26 02:37 | 36.92895 | -84.14513 | 36957 ft | 509 kts | 68° |
| 2026-04-26 02:38 | 36.95353 | -84.06273 | 36958 ft | 509 kts | 68° |
| 2026-04-26 02:38 | 36.97793 | -83.98047 | 36961 ft | 509 kts | 68° |
| 2026-04-26 02:39 | 37.00245 | -83.89735 | 36937 ft | 510 kts | 69° |
| 2026-04-26 02:39 | 37.02696 | -83.81399 | 36948 ft | 510 kts | 69° |
| 2026-04-26 02:40 | 37.05142 | -83.73059 | 36935 ft | 511 kts | 69° |
| 2026-04-26 02:40 | 37.07587 | -83.64701 | 36946 ft | 511 kts | 69° |
| 2026-04-26 02:41 | 37.10026 | -83.56334 | 36921 ft | 511 kts | 69° |
| 2026-04-26 02:41 | 37.12458 | -83.47968 | 36910 ft | 511 kts | 69° |
| 2026-04-26 02:42 | 37.14883 | -83.39601 | 36912 ft | 511 kts | 69° |
| 2026-04-26 02:42 | 37.17300 | -83.31232 | 36903 ft | 510 kts | 69° |
| 2026-04-26 02:43 | 37.20899 | -83.18727 | 36911 ft | 511 kts | 69° |
| 2026-04-26 02:43 | 37.23305 | -83.10333 | 36921 ft | 511 kts | 70° |
| 2026-04-26 02:44 | 37.25712 | -83.01914 | 36928 ft | 512 kts | 70° |
| 2026-04-26 02:44 | 37.28093 | -82.93564 | 36952 ft | 513 kts | 70° |
| 2026-04-26 02:45 | 37.30496 | -82.85117 | 36919 ft | 513 kts | 70° |
| 2026-04-26 02:45 | 37.32875 | -82.76725 | 36915 ft | 513 kts | 70° |
| 2026-04-26 02:46 | 37.35266 | -82.68261 | 36946 ft | 513 kts | 70° |
| 2026-04-26 02:46 | 37.37650 | -82.59799 | 36955 ft | 513 kts | 70° |
| 2026-04-26 02:47 | 37.40031 | -82.51318 | 36961 ft | 513 kts | 70° |
| 2026-04-26 02:47 | 37.42401 | -82.42847 | 36905 ft | 513 kts | 70° |
| 2026-04-26 02:48 | 37.44764 | -82.34377 | 36911 ft | 513 kts | 70° |
| 2026-04-26 02:48 | 37.47123 | -82.25895 | 36938 ft | 513 kts | 70° |
| 2026-04-26 02:49 | 37.49465 | -82.17447 | 36910 ft | 515 kts | 71° |
| 2026-04-26 02:49 | 37.51818 | -82.08945 | 36920 ft | 514 kts | 71° |
| 2026-04-26 02:50 | 37.54177 | -82.00419 | 36926 ft | 515 kts | 71° |
| 2026-04-26 02:50 | 37.56503 | -81.91985 | 36922 ft | 515 kts | 71° |
| 2026-04-26 02:51 | 37.58850 | -81.83441 | 36917 ft | 516 kts | 71° |
| 2026-04-26 02:51 | 37.61188 | -81.74889 | 36925 ft | 516 kts | 71° |
| 2026-04-26 02:52 | 37.63514 | -81.66315 | 36919 ft | 516 kts | 71° |
| 2026-04-26 02:52 | 37.65817 | -81.57797 | 36941 ft | 516 kts | 71° |
| 2026-04-26 02:53 | 37.68134 | -81.49205 | 36939 ft | 517 kts | 71° |
| 2026-04-26 02:53 | 37.70447 | -81.40604 | 36954 ft | 516 kts | 71° |
| 2026-04-26 02:54 | 37.72748 | -81.32016 | 36966 ft | 516 kts | 71° |
| 2026-04-26 02:54 | 37.74656 | -81.24869 | 36978 ft | 516 kts | 71° |
| 2026-04-26 02:55 | 37.76947 | -81.16271 | 36992 ft | 516 kts | 72° |
| 2026-04-26 02:55 | 37.79888 | -81.06405 | 37002 ft | 516 kts | 65° |
| 2026-04-26 02:56 | 37.82418 | -80.99623 | 36964 ft | 516 kts | 64° |
| 2026-04-26 02:56 | 37.85444 | -80.91397 | 36971 ft | 517 kts | 65° |
| 2026-04-26 02:57 | 37.88375 | -80.83095 | 36949 ft | 517 kts | 66° |
| 2026-04-26 02:57 | 37.91323 | -80.74782 | 36936 ft | 517 kts | 65° |
| 2026-04-26 02:58 | 37.94279 | -80.66483 | 36927 ft | 517 kts | 65° |
| 2026-04-26 02:58 | 37.97213 | -80.58216 | 36937 ft | 518 kts | 66° |
| 2026-04-26 02:59 | 38.00159 | -80.49877 | 36919 ft | 518 kts | 66° |
| 2026-04-26 02:59 | 38.03099 | -80.41529 | 36944 ft | 519 kts | 66° |
| 2026-04-26 03:00 | 38.06045 | -80.33140 | 36936 ft | 520 kts | 66° |
| 2026-04-26 03:00 | 38.08991 | -80.24734 | 36928 ft | 521 kts | 66° |
| 2026-04-26 03:01 | 38.11937 | -80.16423 | 36828 ft | 514 kts | 66° |
| 2026-04-26 03:01 | 38.13411 | -80.12290 | 36202 ft | 512 kts | 66° |
| 2026-04-26 03:01 | 38.14879 | -80.08164 | 35504 ft | 513 kts | 66° |
| 2026-04-26 03:02 | 38.16336 | -80.04058 | 35046 ft | 508 kts | 66° |
| 2026-04-26 03:02 | 38.17786 | -79.99961 | 34573 ft | 512 kts | 66° |
| 2026-04-26 03:02 | 38.19224 | -79.95887 | 34119 ft | 518 kts | 66° |
| 2026-04-26 03:02 | 38.20699 | -79.91703 | 33615 ft | 520 kts | 66° |
| 2026-04-26 03:03 | 38.22177 | -79.87504 | 33108 ft | 519 kts | 67° |
| 2026-04-26 03:03 | 38.23651 | -79.83309 | 32580 ft | 519 kts | 67° |
| 2026-04-26 03:03 | 38.25125 | -79.79112 | 32049 ft | 518 kts | 67° |
| 2026-04-26 03:03 | 38.26592 | -79.74929 | 31541 ft | 518 kts | 68° |
| 2026-04-26 03:04 | 38.28055 | -79.70743 | 31060 ft | 517 kts | 68° |
| 2026-04-26 03:04 | 38.29502 | -79.66557 | 30559 ft | 515 kts | 68° |
| 2026-04-26 03:04 | 38.30936 | -79.62381 | 30090 ft | 514 kts | 68° |
| 2026-04-26 03:04 | 38.32365 | -79.58212 | 29548 ft | 514 kts | 68° |
| 2026-04-26 03:05 | 38.33793 | -79.54039 | 28986 ft | 514 kts | 68° |
| 2026-04-26 03:05 | 38.35231 | -79.49837 | 28454 ft | 519 kts | 68° |
| 2026-04-26 03:05 | 38.36660 | -79.45658 | 27941 ft | 523 kts | 67° |
| 2026-04-26 03:05 | 38.38132 | -79.41352 | 27403 ft | 524 kts | 67° |
| 2026-04-26 03:06 | 38.39570 | -79.37140 | 26909 ft | 526 kts | 66° |
| 2026-04-26 03:06 | 38.41034 | -79.32851 | 26431 ft | 526 kts | 66° |
| 2026-04-26 03:06 | 38.42463 | -79.28565 | 26033 ft | 526 kts | 70° |
| 2026-04-26 03:06 | 38.43458 | -79.24084 | 25963 ft | 525 kts | 79° |
| 2026-04-26 03:07 | 38.44163 | -79.19504 | 25643 ft | 527 kts | 80° |
| 2026-04-26 03:07 | 38.44856 | -79.14932 | 25211 ft | 523 kts | 79° |
| 2026-04-26 03:07 | 38.45593 | -79.10421 | 24823 ft | 517 kts | 78° |
| 2026-04-26 03:07 | 38.46370 | -79.05951 | 24345 ft | 515 kts | 77° |
| 2026-04-26 03:08 | 38.47162 | -79.01489 | 23877 ft | 514 kts | 77° |
| 2026-04-26 03:08 | 38.47930 | -78.97129 | 23419 ft | 512 kts | 77° |
| 2026-04-26 03:08 | 38.48701 | -78.92706 | 22883 ft | 510 kts | 77° |
| 2026-04-26 03:08 | 38.49463 | -78.88306 | 22347 ft | 503 kts | 77° |
| 2026-04-26 03:09 | 38.50198 | -78.84037 | 21826 ft | 492 kts | 77° |
| 2026-04-26 03:09 | 38.50884 | -78.79795 | 21310 ft | 484 kts | 78° |
| 2026-04-26 03:09 | 38.51532 | -78.75605 | 20810 ft | 479 kts | 78° |
| 2026-04-26 03:09 | 38.52172 | -78.71453 | 20317 ft | 473 kts | 78° |
| 2026-04-26 03:10 | 38.52811 | -78.67357 | 19840 ft | 468 kts | 78° |
| 2026-04-26 03:10 | 38.53448 | -78.63294 | 19357 ft | 465 kts | 78° |
| 2026-04-26 03:10 | 38.54084 | -78.59254 | 18896 ft | 461 kts | 78° |
| 2026-04-26 03:10 | 38.54716 | -78.55249 | 18440 ft | 458 kts | 78° |
| 2026-04-26 03:11 | 38.55345 | -78.51276 | 17937 ft | 454 kts | 78° |
| 2026-04-26 03:11 | 38.55960 | -78.47338 | 17450 ft | 448 kts | 78° |
| 2026-04-26 03:11 | 38.56545 | -78.43473 | 17087 ft | 438 kts | 78° |
| 2026-04-26 03:11 | 38.57106 | -78.39706 | 16719 ft | 426 kts | 78° |
| 2026-04-26 03:12 | 38.57644 | -78.36040 | 16355 ft | 414 kts | 78° |
| 2026-04-26 03:12 | 38.58157 | -78.32509 | 15997 ft | 403 kts | 78° |
| 2026-04-26 03:12 | 38.58658 | -78.29026 | 15644 ft | 393 kts | 78° |
| 2026-04-26 03:12 | 38.59143 | -78.25627 | 15295 ft | 385 kts | 78° |
| 2026-04-26 03:13 | 38.59615 | -78.22298 | 14953 ft | 377 kts | 78° |
| 2026-04-26 03:13 | 38.60075 | -78.19033 | 14614 ft | 370 kts | 78° |
| 2026-04-26 03:13 | 38.60523 | -78.15824 | 14292 ft | 363 kts | 78° |
| 2026-04-26 03:13 | 38.60961 | -78.12671 | 13966 ft | 357 kts | 78° |
| 2026-04-26 03:14 | 38.61389 | -78.09565 | 13636 ft | 352 kts | 78° |
| 2026-04-26 03:14 | 38.61809 | -78.06499 | 13267 ft | 347 kts | 78° |
| 2026-04-26 03:14 | 38.62223 | -78.03477 | 12904 ft | 343 kts | 78° |
| 2026-04-26 03:14 | 38.62632 | -78.00492 | 12545 ft | 339 kts | 78° |
| 2026-04-26 03:15 | 38.63031 | -77.97604 | 12195 ft | 335 kts | 78° |
| 2026-04-26 03:15 | 38.63433 | -77.94718 | 11852 ft | 332 kts | 78° |
| 2026-04-26 03:15 | 38.63833 | -77.91821 | 11512 ft | 329 kts | 79° |
| 2026-04-26 03:15 | 38.64217 | -77.88902 | 11156 ft | 327 kts | 79° |
| 2026-04-26 03:16 | 38.64587 | -77.86080 | 10820 ft | 325 kts | 80° |
| 2026-04-26 03:16 | 38.64962 | -77.83242 | 10482 ft | 322 kts | 80° |
| 2026-04-26 03:16 | 38.65338 | -77.80421 | 10148 ft | 320 kts | 80° |
| 2026-04-26 03:16 | 38.65712 | -77.77647 | 10012 ft | 311 kts | 80° |
| 2026-04-26 03:17 | 38.66076 | -77.74970 | 9987 ft | 298 kts | 80° |
| 2026-04-26 03:17 | 38.66135 | -77.72400 | 9983 ft | 284 kts | 99° |
| 2026-04-26 03:17 | 38.65824 | -77.69952 | 9979 ft | 272 kts | 100° |
| 2026-04-26 03:17 | 38.65525 | -77.67592 | 9983 ft | 266 kts | 99° |
| 2026-04-26 03:18 | 38.65232 | -77.65262 | 9984 ft | 265 kts | 99° |
| 2026-04-26 03:18 | 38.64941 | -77.62943 | 9997 ft | 270 kts | 99° |
| 2026-04-26 03:18 | 38.64626 | -77.60436 | 9976 ft | 299 kts | 99° |
| 2026-04-26 03:18 | 38.64293 | -77.57772 | 9653 ft | 306 kts | 100° |
| 2026-04-26 03:19 | 38.63961 | -77.55070 | 9346 ft | 307 kts | 99° |
| 2026-04-26 03:19 | 38.63632 | -77.52380 | 9032 ft | 305 kts | 99° |
| 2026-04-26 03:19 | 38.63303 | -77.49714 | 8722 ft | 302 kts | 99° |
| 2026-04-26 03:19 | 38.62975 | -77.47073 | 8425 ft | 300 kts | 99° |
| 2026-04-26 03:20 | 38.62647 | -77.44443 | 8122 ft | 298 kts | 99° |
| 2026-04-26 03:20 | 38.62314 | -77.41806 | 7646 ft | 303 kts | 99° |
| 2026-04-26 03:20 | 38.61967 | -77.39112 | 7046 ft | 311 kts | 99° |
| 2026-04-26 03:20 | 38.61603 | -77.36344 | 6438 ft | 319 kts | 99° |
| 2026-04-26 03:21 | 38.61218 | -77.33519 | 5776 ft | 326 kts | 99° |
| 2026-04-26 03:21 | 38.60813 | -77.30641 | 5138 ft | 328 kts | 99° |
| 2026-04-26 03:21 | 38.60394 | -77.27796 | 4481 ft | 323 kts | 99° |
| 2026-04-26 03:21 | 38.59979 | -77.24990 | 3934 ft | 316 kts | 99° |
| 2026-04-26 03:22 | 38.59581 | -77.22287 | 3558 ft | 304 kts | 100° |
| 2026-04-26 03:22 | 38.59216 | -77.19680 | 3177 ft | 293 kts | 99° |
| 2026-04-26 03:22 | 38.58874 | -77.17180 | 3009 ft | 276 kts | 99° |
| 2026-04-26 03:22 | 38.58556 | -77.14879 | 2979 ft | 256 kts | 99° |
| 2026-04-26 03:23 | 38.58254 | -77.12711 | 2877 ft | 241 kts | 99° |
| 2026-04-26 03:23 | 38.57959 | -77.10633 | 2667 ft | 233 kts | 100° |
| 2026-04-26 03:23 | 38.57679 | -77.08640 | 2522 ft | 222 kts | 99° |
| 2026-04-26 03:23 | 38.57413 | -77.06762 | 2485 ft | 206 kts | 99° |
| 2026-04-26 03:24 | 38.57188 | -77.05016 | 2471 ft | 194 kts | 89° |
| 2026-04-26 03:24 | 38.57608 | -77.03448 | 2490 ft | 189 kts | 41° |
| 2026-04-26 03:24 | 38.58762 | -77.02782 | 2524 ft | 186 kts | 5° |
| 2026-04-26 03:24 | 38.60069 | -77.02562 | 2519 ft | 191 kts | 6° |
| 2026-04-26 03:25 | 38.61366 | -77.02324 | 2505 ft | 185 kts | 6° |
| 2026-04-26 03:25 | 38.62625 | -77.02103 | 2497 ft | 182 kts | 5° |
| 2026-04-26 03:25 | 38.63902 | -77.01893 | 2515 ft | 187 kts | 4° |
| 2026-04-26 03:25 | 38.65195 | -77.01923 | 2507 ft | 187 kts | 356° |
| 2026-04-26 03:26 | 38.66508 | -77.01955 | 2501 ft | 190 kts | 360° |
| 2026-04-26 03:26 | 38.67831 | -77.01932 | 2477 ft | 190 kts | 359° |
| 2026-04-26 03:26 | 38.69146 | -77.02061 | 2473 ft | 190 kts | 353° |
| 2026-04-26 03:26 | 38.70484 | -77.02238 | 2197 ft | 196 kts | 355° |
| 2026-04-26 03:27 | 38.71808 | -77.02395 | 1876 ft | 191 kts | 358° |
| 2026-04-26 03:27 | 38.73085 | -77.02538 | 1634 ft | 175 kts | 358° |
| 2026-04-26 03:27 | 38.74233 | -77.02663 | 1600 ft | 163 kts | 358° |
| 2026-04-26 03:27 | 38.75366 | -77.02779 | 1591 ft | 162 kts | 359° |
| 2026-04-26 03:28 | 38.76454 | -77.02892 | 1573 ft | 155 kts | 359° |
| 2026-04-26 03:28 | 38.77553 | -77.03007 | 1361 ft | 156 kts | 357° |
| 2026-04-26 03:28 | 38.78601 | -77.03115 | 1146 ft | 148 kts | 359° |
| 2026-04-26 03:28 | 38.79608 | -77.03215 | 946 ft | 145 kts | 359° |
| 2026-04-26 03:29 | 38.80602 | -77.03319 | 815 ft | 144 kts | 357° |
| 2026-04-26 03:29 | 38.81616 | -77.03443 | 645 ft | 148 kts | 358° |
| 2026-04-26 03:29 | 38.82652 | -77.03543 | 417 ft | 150 kts | 358° |
| 2026-04-26 03:29 | 38.83694 | -77.03632 | 164 ft | 150 kts | 358° |
| 2026-04-26 03:30 | 38.84691 | -77.03731 | 24 ft | 135 kts | 358° |
| 2026-04-26 03:30 | 38.85444 | -77.03804 | 28 ft | 78 kts | 356° |
| 2026-04-26 03:30 | 38.85802 | -77.03842 | 30 ft | 20 kts | 352° |
| 2026-04-26 03:30 | 38.85909 | -77.03912 | 27 ft | 7 kts | 292° |
| 2026-04-26 03:31 | 38.85916 | -77.03934 | 27 ft | 7 kts | 295° |
| 2026-04-26 03:31 | 38.85932 | -77.04017 | 28 ft | 15 kts | 271° |
| 2026-04-26 03:31 | 38.85874 | -77.04074 | 26 ft | 13 kts | 173° |
| 2026-04-26 03:31 | 38.85752 | -77.04054 | 28 ft | 21 kts | 174° |
| 2026-04-26 03:32 | 38.85578 | -77.04035 | 30 ft | 28 kts | 173° |
| 2026-04-26 03:32 | 38.85390 | -77.04001 | 24 ft | 27 kts | 176° |
| 2026-04-26 03:32 | 38.85211 | -77.03984 | 21 ft | 25 kts | 176° |
| 2026-04-26 03:32 | 38.85093 | -77.03971 | 23 ft | 8 kts | 175° |
| 2026-04-26 03:33 | 38.85042 | -77.03984 | 20 ft | 8 kts | 222° |
| 2026-04-26 03:33 | 38.85034 | -77.04023 | 20 ft | 3 kts | 269° |
| 2026-04-26 03:33 | 38.85034 | -77.04053 | 20 ft | 3 kts | 268° |
| 2026-04-26 03:33 | 38.85033 | -77.04065 | 20 ft | 0 kts | 265° |